createdAt,value
2022-08-30T00:01:29.021Z,13.60
2022-08-30T00:03:56.807Z,13.28
2022-08-30T00:06:33.469Z,13.08
2022-08-30T00:09:03.037Z,12.71
2022-08-30T00:11:30.417Z,13.00
2022-08-30T00:13:58.635Z,13.28
2022-08-30T00:16:28.078Z,13.06
2022-08-30T00:18:57.321Z,13.03
2022-08-30T00:21:27.425Z,12.94
2022-08-30T00:23:56.500Z,12.79
2022-08-30T00:26:25.758Z,13.05
2022-08-30T00:28:52.976Z,12.92
2022-08-30T00:31:23.220Z,12.71
2022-08-30T00:34:10.754Z,12.56
2022-08-30T00:36:38.777Z,12.57
2022-08-30T00:39:06.828Z,12.64
2022-08-30T00:41:34.757Z,12.37
2022-08-30T00:44:08.675Z,12.28
2022-08-30T00:46:35.714Z,12.25
2022-08-30T00:49:22.190Z,12.40
2022-08-30T00:51:50.603Z,12.64
2022-08-30T00:54:22.626Z,12.70
2022-08-30T00:57:00.086Z,12.71
2022-08-30T00:59:28.035Z,12.56
2022-08-30T01:02:03.658Z,12.36
2022-08-30T01:04:33.802Z,12.23
2022-08-30T01:07:01.153Z,12.18
2022-08-30T01:09:30.342Z,12.17
2022-08-30T01:11:58.526Z,12.34
2022-08-30T01:14:26.806Z,12.08
2022-08-30T01:17:07.100Z,12.07
2022-08-30T01:19:54.366Z,12.04
2022-08-30T01:22:45.106Z,11.98
2022-08-30T01:25:23.389Z,11.98
2022-08-30T01:28:11.206Z,12.22
2022-08-30T01:30:43.352Z,12.43
2022-08-30T01:33:11.778Z,12.37
2022-08-30T01:36:03.888Z,12.38
2022-08-30T01:38:57.135Z,12.25
2022-08-30T01:41:48.519Z,12.15
2022-08-30T01:44:16.817Z,12.04
2022-08-30T01:46:48.014Z,12.09
2022-08-30T01:49:27.325Z,12.13
2022-08-30T01:52:01.043Z,12.26
2022-08-30T01:54:38.645Z,12.28
2022-08-30T01:57:08.897Z,12.30
2022-08-30T01:59:53.905Z,12.45
2022-08-30T02:02:49.470Z,12.30
2022-08-30T02:05:23.524Z,12.35
2022-08-30T02:08:05.472Z,12.27
2022-08-30T02:10:38.737Z,12.51
2022-08-30T02:13:06.787Z,12.41
2022-08-30T02:15:41.738Z,12.44
2022-08-30T02:18:23.476Z,12.52
2022-08-30T02:20:56.594Z,12.63
2022-08-30T02:23:45.249Z,12.64
2022-08-30T02:26:23.534Z,12.52
2022-08-30T02:28:51.425Z,12.46
2022-08-30T02:31:27.686Z,12.36
2022-08-30T02:33:55.456Z,12.43
2022-08-30T02:36:24.845Z,12.46
2022-08-30T02:38:57.165Z,12.48
2022-08-30T02:41:42.194Z,12.46
2022-08-30T02:44:26.586Z,12.51
2022-08-30T02:47:17.232Z,12.45
2022-08-30T02:49:49.472Z,12.27
2022-08-30T02:52:20.060Z,12.27
2022-08-30T02:55:00.834Z,12.04
2022-08-30T02:57:36.458Z,11.87
2022-08-30T03:00:08.733Z,11.80
2022-08-30T03:02:40.865Z,11.83
2022-08-30T03:05:13.302Z,11.86
2022-08-30T03:07:52.008Z,11.85
2022-08-30T03:10:50.583Z,11.96
2022-08-30T03:13:39.287Z,11.88
2022-08-30T03:16:16.462Z,11.99
2022-08-30T03:18:44.564Z,11.95
2022-08-30T03:21:18.526Z,12.00
2022-08-30T03:23:46.963Z,12.02
2022-08-30T03:26:16.223Z,12.13
2022-08-30T03:28:44.031Z,12.15
2022-08-30T03:31:13.150Z,12.06
2022-08-30T03:33:47.859Z,12.04
2022-08-30T03:36:23.057Z,11.94
2022-08-30T03:38:57.028Z,11.85
2022-08-30T03:41:25.721Z,11.84
2022-08-30T03:43:53.809Z,11.77
2022-08-30T03:46:31.131Z,11.84
2022-08-30T03:48:59.719Z,11.71
2022-08-30T03:51:27.809Z,11.64
2022-08-30T03:53:54.776Z,11.71
2022-08-30T03:56:21.904Z,11.56
2022-08-30T03:58:49.182Z,11.50
2022-08-30T04:01:16.309Z,11.55
2022-08-30T04:03:44.363Z,11.48
2022-08-30T04:06:18.799Z,11.47
2022-08-30T04:08:48.247Z,11.45
2022-08-30T04:11:16.706Z,11.47
2022-08-30T04:13:44.586Z,11.61
2022-08-30T04:16:13.313Z,11.84
2022-08-30T04:18:40.613Z,11.81
2022-08-30T04:21:09.519Z,11.78
2022-08-30T04:23:39.613Z,11.72
2022-08-30T04:26:06.644Z,11.65
2022-08-30T04:28:36.905Z,11.57
2022-08-30T04:31:16.037Z,11.72
2022-08-30T04:33:50.039Z,11.95
2022-08-30T04:36:18.239Z,12.00
2022-08-30T04:39:09.666Z,11.98
2022-08-30T04:41:40.371Z,12.01
2022-08-30T04:44:08.196Z,11.95
2022-08-30T04:46:44.762Z,12.05
2022-08-30T04:49:12.158Z,12.13
2022-08-30T04:51:45.324Z,12.14
2022-08-30T04:54:18.465Z,12.24
2022-08-30T04:56:47.903Z,12.31
2022-08-30T04:59:17.995Z,12.43
2022-08-30T05:01:46.250Z,12.46
2022-08-30T05:04:19.522Z,12.41
2022-08-30T05:06:47.651Z,12.58
2022-08-30T05:09:15.906Z,12.64
2022-08-30T05:11:49.207Z,12.75
2022-08-30T05:14:17.412Z,12.87
2022-08-30T05:16:44.478Z,13.08
2022-08-30T05:19:23.939Z,13.21
2022-08-30T05:21:55.169Z,13.38
2022-08-30T05:24:22.208Z,13.50
2022-08-30T05:26:49.390Z,13.64
2022-08-30T05:29:18.012Z,13.76
2022-08-30T05:31:45.226Z,13.89
2022-08-30T05:34:14.813Z,13.94
2022-08-30T05:36:42.083Z,14.01
2022-08-30T05:39:11.035Z,14.17
2022-08-30T05:41:40.760Z,14.20
2022-08-30T05:44:14.040Z,14.38
2022-08-30T05:46:46.636Z,14.43
2022-08-30T05:49:16.218Z,14.49
2022-08-30T05:51:45.492Z,14.52
2022-08-30T05:54:14.724Z,14.63
2022-08-30T05:56:46.142Z,14.85
2022-08-30T05:59:15.806Z,14.80
2022-08-30T06:02:07.698Z,14.79
2022-08-30T06:04:36.815Z,14.88
2022-08-30T06:07:06.574Z,14.83
2022-08-30T06:09:37.947Z,14.80
2022-08-30T06:12:06.218Z,14.99
2022-08-30T06:14:33.395Z,15.11
2022-08-30T06:17:01.604Z,15.26
2022-08-30T06:19:34.644Z,15.53
2022-08-30T06:22:01.704Z,15.64
2022-08-30T06:24:53.616Z,15.56
2022-08-30T06:27:18.802Z,15.78
2022-08-30T06:29:45.885Z,15.94
2022-08-30T06:32:15.022Z,16.22
2022-08-30T06:34:43.225Z,16.42
2022-08-30T06:37:11.360Z,16.58
2022-08-30T06:39:39.425Z,16.75
2022-08-30T06:42:06.795Z,16.79
2022-08-30T06:44:35.844Z,16.94
2022-08-30T06:47:09.787Z,17.06
2022-08-30T06:49:44.715Z,17.17
2022-08-30T06:52:12.363Z,17.30
2022-08-30T06:54:46.396Z,17.50
2022-08-30T06:57:17.204Z,17.51
2022-08-30T06:59:46.205Z,17.47
2022-08-30T07:02:17.606Z,17.68
2022-08-30T07:04:48.948Z,17.83
2022-08-30T07:07:16.883Z,17.95
2022-08-30T07:09:45.373Z,18.14
2022-08-30T07:12:18.778Z,18.27
2022-08-30T07:14:53.571Z,18.38
2022-08-30T07:17:40.288Z,18.53
2022-08-30T07:20:19.016Z,18.61
2022-08-30T07:22:47.895Z,18.74
2022-08-30T07:25:17.336Z,18.83
2022-08-30T07:27:48.309Z,18.89
2022-08-30T07:30:15.321Z,18.97
2022-08-30T07:32:42.411Z,19.16
2022-08-30T07:35:09.588Z,19.35
2022-08-30T07:37:36.840Z,19.49
2022-08-30T07:40:04.937Z,19.59
2022-08-30T07:42:32.024Z,19.71
2022-08-30T07:45:01.113Z,19.79
2022-08-30T07:47:28.186Z,19.95
2022-08-30T07:49:55.120Z,19.74
2022-08-30T07:52:27.953Z,19.65
2022-08-30T07:55:00.177Z,19.77
2022-08-30T07:57:33.802Z,19.98
2022-08-30T08:00:01.902Z,20.26
2022-08-30T08:02:42.172Z,20.56
2022-08-30T08:05:12.800Z,20.94
2022-08-30T08:07:43.679Z,21.08
2022-08-30T08:10:13.887Z,20.91
2022-08-30T08:12:41.857Z,21.10
2022-08-30T08:15:09.303Z,21.11
2022-08-30T08:17:36.376Z,20.63
2022-08-30T08:20:04.815Z,20.84
2022-08-30T08:22:32.045Z,20.36
2022-08-30T08:25:01.510Z,20.28
2022-08-30T08:27:29.343Z,20.11
2022-08-30T08:29:56.360Z,20.22
2022-08-30T08:32:23.531Z,20.38
2022-08-30T08:34:50.640Z,20.68
2022-08-30T08:37:20.815Z,20.85
2022-08-30T08:39:48.931Z,21.28
2022-08-30T08:42:32.165Z,21.50
2022-08-30T08:45:17.880Z,21.72
2022-08-30T08:47:54.176Z,21.85
2022-08-30T08:50:25.748Z,22.12
2022-08-30T08:53:45.613Z,22.15
2022-08-30T08:56:23.147Z,22.14
2022-08-30T08:58:58.389Z,22.28
2022-08-30T09:01:30.531Z,21.97
2022-08-30T09:04:13.467Z,22.46
2022-08-30T09:06:59.004Z,22.42
2022-08-30T09:09:36.445Z,22.52
2022-08-30T09:12:07.862Z,22.23
2022-08-30T09:14:59.300Z,22.33
2022-08-30T09:17:49.031Z,22.63
2022-08-30T09:20:41.666Z,22.63
2022-08-30T09:23:30.205Z,22.41
2022-08-30T09:26:09.473Z,22.41
2022-08-30T09:28:49.612Z,22.74
2022-08-30T09:31:29.552Z,23.15
2022-08-30T09:34:16.767Z,23.21
2022-08-30T09:36:52.425Z,22.94
2022-08-30T09:39:27.569Z,22.72
2022-08-30T09:41:55.478Z,22.71
2022-08-30T09:44:39.323Z,22.38
2022-08-30T09:47:24.307Z,22.36
2022-08-30T09:50:20.122Z,22.30
2022-08-30T09:53:19.898Z,22.83
2022-08-30T09:55:56.509Z,23.50
2022-08-30T09:58:49.057Z,23.62
2022-08-30T10:01:32.026Z,23.35
2022-08-30T10:04:18.868Z,23.34
2022-08-30T10:07:02.609Z,23.61
2022-08-30T10:09:52.534Z,24.07
2022-08-30T10:12:50.258Z,24.87
2022-08-30T10:15:41.254Z,25.71
2022-08-30T10:18:16.921Z,26.45
2022-08-30T10:21:06.715Z,26.44
2022-08-30T10:23:46.391Z,26.31
2022-08-30T10:26:22.302Z,25.62
2022-08-30T10:29:10.780Z,25.19
2022-08-30T10:31:53.598Z,24.84
2022-08-30T10:34:32.759Z,24.72
2022-08-30T10:37:25.402Z,24.89
2022-08-30T10:40:22.608Z,25.71
2022-08-30T10:42:56.703Z,26.56
2022-08-30T10:45:33.410Z,27.20
2022-08-30T10:48:05.489Z,27.40
2022-08-30T10:50:49.026Z,27.49
2022-08-30T10:53:41.104Z,26.59
2022-08-30T10:56:23.726Z,26.24
2022-08-30T10:58:54.803Z,26.19
2022-08-30T11:01:50.770Z,26.24
2022-08-30T11:04:54.524Z,26.56
2022-08-30T11:08:03.212Z,27.11
2022-08-30T11:10:54.146Z,27.90
2022-08-30T11:13:26.369Z,28.74
2022-08-30T11:16:15.471Z,29.38
2022-08-30T11:18:54.353Z,30.13
2022-08-30T11:21:40.129Z,30.45
2022-08-30T11:24:11.455Z,29.99
2022-08-30T11:26:59.950Z,29.46
2022-08-30T11:29:38.159Z,29.02
2022-08-30T11:32:25.865Z,29.27
2022-08-30T11:35:32.406Z,30.03
2022-08-30T11:38:32.684Z,30.95
2022-08-30T11:41:14.324Z,30.89
2022-08-30T11:43:47.469Z,30.37
2022-08-30T11:46:20.108Z,30.41
2022-08-30T11:49:17.168Z,30.83
2022-08-30T11:55:01.878Z,31.78
2022-08-30T11:58:22.142Z,32.30
2022-08-30T12:01:40.697Z,32.78
2022-08-30T12:04:44.172Z,33.44
2022-08-30T12:07:12.895Z,33.50
2022-08-30T12:09:46.455Z,33.81
2022-08-30T12:12:27.009Z,34.37
2022-08-30T12:14:57.776Z,34.19
2022-08-30T12:18:16.069Z,32.81
2022-08-30T12:20:49.319Z,31.29
2022-08-30T12:23:44.780Z,30.36
2022-08-30T12:26:25.690Z,29.44
2022-08-30T12:29:18.465Z,28.84
2022-08-30T12:31:56.385Z,28.35
2022-08-30T12:34:52.139Z,28.11
2022-08-30T12:37:42.367Z,28.08
2022-08-30T12:40:21.359Z,27.74
2022-08-30T12:42:58.761Z,27.70
2022-08-30T12:45:31.796Z,27.96
2022-08-30T12:48:11.980Z,28.80
2022-08-30T12:50:54.039Z,29.98
2022-08-30T12:53:37.878Z,30.82
2022-08-30T12:56:11.975Z,31.55
2022-08-30T12:58:41.825Z,31.87
2022-08-30T13:01:33.979Z,31.83
2022-08-30T13:04:09.501Z,32.44
2022-08-30T13:07:02.806Z,33.17
2022-08-30T13:09:39.108Z,33.43
2022-08-30T13:12:20.563Z,33.55
2022-08-30T13:14:50.488Z,33.95
2022-08-30T13:17:24.193Z,34.14
2022-08-30T13:20:16.232Z,34.68
2022-08-30T13:23:12.300Z,34.88
2022-08-30T13:25:47.489Z,34.97
2022-08-30T13:28:15.834Z,35.15
2022-08-30T13:30:42.967Z,35.45
2022-08-30T13:33:14.370Z,35.50
2022-08-30T13:35:43.189Z,35.03
2022-08-30T13:38:11.207Z,34.26
2022-08-30T13:40:38.550Z,33.83
2022-08-30T13:43:16.679Z,33.84
2022-08-30T13:45:46.052Z,33.87
2022-08-30T13:48:17.398Z,33.41
2022-08-30T13:50:46.418Z,32.47
2022-08-30T13:53:13.643Z,31.46
2022-08-30T13:56:06.171Z,30.67
2022-08-30T13:58:47.778Z,30.13
2022-08-30T14:01:15.017Z,30.24
2022-08-30T14:06:34.924Z,31.29
2022-08-30T14:09:24.621Z,32.18
2022-08-30T14:11:59.397Z,32.25
2022-08-30T14:14:42.615Z,31.81
2022-08-30T14:17:12.538Z,31.24
2022-08-30T14:19:46.358Z,30.71
2022-08-30T14:44:15.189Z,29.63
2022-08-30T14:46:47.777Z,29.90
2022-08-30T14:49:28.927Z,29.77
2022-08-30T14:52:08.432Z,29.89
2022-08-30T14:54:36.703Z,29.90
2022-08-30T14:57:04.033Z,29.57
2022-08-30T14:59:59.403Z,29.13
2022-08-30T15:02:27.240Z,28.77
2022-08-30T15:04:55.333Z,28.49
2022-08-30T15:07:24.964Z,28.34
2022-08-30T15:09:54.517Z,28.33
2022-08-30T15:12:22.684Z,28.62
2022-08-30T15:14:51.732Z,28.61
2022-08-30T15:17:21.403Z,28.45
2022-08-30T15:19:48.579Z,28.45
2022-08-30T15:22:16.200Z,28.40
2022-08-30T15:24:43.800Z,28.55
2022-08-30T15:27:19.149Z,28.73
2022-08-30T15:29:46.219Z,28.84
2022-08-30T15:32:24.237Z,29.07
2022-08-30T15:34:57.745Z,29.57
2022-08-30T15:37:26.431Z,30.17
2022-08-30T15:39:53.871Z,30.55
2022-08-30T15:42:20.881Z,30.75
2022-08-30T15:44:55.697Z,30.89
2022-08-30T15:47:33.181Z,31.22
2022-08-30T15:50:04.724Z,31.17
2022-08-30T15:52:34.185Z,30.88
2022-08-30T15:55:06.126Z,31.13
2022-08-30T15:57:36.350Z,31.48
2022-08-30T16:00:08.601Z,31.58
2022-08-30T16:02:41.523Z,31.32
2022-08-30T16:05:15.564Z,31.29
2022-08-30T16:08:10.321Z,31.39
2022-08-30T16:10:43.247Z,31.45
2022-08-30T16:13:10.550Z,31.49
2022-08-30T16:15:40.770Z,31.43
2022-08-30T16:18:08.858Z,31.38
2022-08-30T16:20:37.187Z,31.09
2022-08-30T16:23:15.374Z,30.97
2022-08-30T16:25:46.741Z,30.75
2022-08-30T16:28:13.850Z,30.69
2022-08-30T16:30:59.510Z,30.58
2022-08-30T16:33:29.875Z,30.18
2022-08-30T16:35:59.145Z,29.87
2022-08-30T16:38:28.935Z,29.58
2022-08-30T16:41:04.195Z,29.17
2022-08-30T16:43:34.756Z,28.86
2022-08-30T16:46:04.557Z,28.49
2022-08-30T16:48:33.955Z,28.14
2022-08-30T16:51:08.786Z,27.78
2022-08-30T16:53:39.363Z,27.40
2022-08-30T16:56:11.688Z,27.08
2022-08-30T16:58:39.956Z,26.78
2022-08-30T17:01:13.876Z,26.42
2022-08-30T17:03:43.172Z,26.10
2022-08-30T17:06:10.418Z,25.82
2022-08-30T17:08:39.430Z,25.57
2022-08-30T17:11:09.533Z,25.26
2022-08-30T17:13:39.765Z,25.06
2022-08-30T17:16:11.899Z,24.81
2022-08-30T17:18:40.246Z,24.56
2022-08-30T17:21:09.423Z,24.28
2022-08-30T17:23:37.680Z,24.18
2022-08-30T17:26:06.653Z,24.03
2022-08-30T17:28:35.345Z,23.82
2022-08-30T17:31:03.732Z,23.71
2022-08-30T17:33:31.104Z,23.59
2022-08-30T17:36:00.188Z,23.51
2022-08-30T17:38:27.329Z,23.39
2022-08-30T17:40:54.756Z,23.30
2022-08-30T17:43:22.192Z,23.19
2022-08-30T17:45:49.772Z,23.14
2022-08-30T17:48:17.020Z,22.99
2022-08-30T17:50:45.358Z,22.71
2022-08-30T17:53:12.387Z,22.30
2022-08-30T17:55:43.594Z,22.27
2022-08-30T17:58:11.841Z,22.06
2022-08-30T18:00:40.053Z,21.86
2022-08-30T18:03:13.091Z,21.79
2022-08-30T18:05:46.811Z,21.70
2022-08-30T18:08:15.245Z,21.57
2022-08-30T18:10:51.528Z,20.86
2022-08-30T18:13:19.422Z,20.93
2022-08-30T18:15:47.002Z,20.95
2022-08-30T18:18:20.044Z,21.12
2022-08-30T18:20:48.566Z,21.02
2022-08-30T18:23:18.355Z,20.64
2022-08-30T18:25:57.715Z,20.53
2022-08-30T18:28:25.043Z,20.69
2022-08-30T18:31:00.905Z,20.64
2022-08-30T18:33:29.396Z,20.80
2022-08-30T18:35:57.071Z,20.88
2022-08-30T18:38:25.072Z,20.61
2022-08-30T18:40:57.663Z,20.61
2022-08-30T18:43:31.067Z,20.57
2022-08-30T18:46:05.083Z,20.62
2022-08-30T18:48:33.076Z,20.69
2022-08-30T18:51:04.498Z,20.72
2022-08-30T18:53:32.662Z,20.66
2022-08-30T18:56:03.423Z,20.70
2022-08-30T18:58:37.442Z,20.67
2022-08-30T19:01:05.152Z,20.68
2022-08-30T19:03:34.816Z,20.60
2022-08-30T19:06:06.836Z,20.51
2022-08-30T19:08:37.166Z,20.46
2022-08-30T19:11:09.771Z,20.37
2022-08-30T19:13:40.771Z,20.31
2022-08-30T19:16:12.066Z,20.07
2022-08-30T19:18:41.400Z,20.00
2022-08-30T19:21:13.604Z,19.86
2022-08-30T19:23:53.021Z,19.74
2022-08-30T19:26:23.450Z,19.74
2022-08-30T19:28:54.967Z,19.73
2022-08-30T19:31:28.004Z,19.81
2022-08-30T19:33:56.412Z,19.88
2022-08-30T19:36:23.758Z,19.87
2022-08-30T19:38:52.873Z,19.94
2022-08-30T19:41:25.334Z,19.90
2022-08-30T19:43:52.735Z,19.87
2022-08-30T19:46:21.861Z,19.84
2022-08-30T19:48:53.216Z,19.82
2022-08-30T19:51:20.444Z,19.85
2022-08-30T19:53:50.477Z,19.77
2022-08-30T19:56:36.303Z,19.62
2022-08-30T19:59:09.487Z,19.47
2022-08-30T20:01:38.130Z,19.53
2022-08-30T20:04:17.644Z,19.47
2022-08-30T20:06:45.665Z,19.54
2022-08-30T20:09:13.677Z,19.57
2022-08-30T20:11:42.903Z,19.55
2022-08-30T20:14:14.151Z,19.53
2022-08-30T20:16:51.745Z,19.49
2022-08-30T20:19:21.824Z,19.54
2022-08-30T20:22:07.168Z,19.42
2022-08-30T20:24:39.324Z,19.26
2022-08-30T20:27:14.510Z,19.12
2022-08-30T20:29:42.242Z,19.02
2022-08-30T20:32:09.350Z,18.97
2022-08-30T20:34:44.766Z,19.00
2022-08-30T20:37:12.390Z,19.03
2022-08-30T20:39:40.639Z,19.04
2022-08-30T20:42:14.725Z,19.01
2022-08-30T20:44:41.788Z,18.96
2022-08-30T20:47:08.891Z,18.96
2022-08-30T20:49:37.586Z,18.88
2022-08-30T20:52:05.120Z,18.78
2022-08-30T20:54:32.374Z,18.73
2022-08-30T20:56:59.482Z,18.74
2022-08-30T20:59:28.705Z,18.84
2022-08-30T21:01:59.251Z,18.83
2022-08-30T21:04:29.145Z,18.91
2022-08-30T21:07:02.409Z,18.91
2022-08-30T21:09:32.641Z,18.89
2022-08-30T21:12:23.415Z,18.89
2022-08-30T21:14:54.576Z,18.96
2022-08-30T21:17:23.640Z,18.87
2022-08-30T21:19:58.422Z,18.91
2022-08-30T21:23:01.800Z,18.99
2022-08-30T21:25:44.794Z,18.99
2022-08-30T21:28:30.666Z,18.97
2022-08-30T21:31:18.459Z,18.89
2022-08-30T21:33:48.345Z,18.81
2022-08-30T21:36:38.409Z,18.82
2022-08-30T21:39:07.371Z,18.76
2022-08-30T21:41:39.915Z,18.71
2022-08-30T21:44:11.585Z,18.73
2022-08-30T21:46:42.256Z,18.62
2022-08-30T21:49:12.287Z,18.42
2022-08-30T21:51:44.827Z,18.39
2022-08-30T21:54:15.935Z,18.32
2022-08-30T21:56:45.354Z,18.26
2022-08-30T21:59:14.012Z,18.25
2022-08-30T22:01:46.112Z,18.18
2022-08-30T22:04:15.119Z,18.18
2022-08-30T22:06:48.313Z,18.25
2022-08-30T22:09:19.837Z,18.25
2022-08-30T22:11:47.557Z,18.27
2022-08-30T22:14:28.330Z,18.34
2022-08-30T22:16:56.656Z,18.35
2022-08-30T22:19:25.238Z,18.35
2022-08-30T22:22:00.607Z,18.36
2022-08-30T22:25:03.253Z,18.41
2022-08-30T22:27:32.378Z,18.48
2022-08-30T22:30:00.669Z,18.54
2022-08-30T22:32:38.489Z,18.45
2022-08-30T22:35:08.237Z,18.34
2022-08-30T22:37:40.545Z,18.38
2022-08-30T22:40:17.081Z,18.37
2022-08-30T22:42:48.655Z,18.31
2022-08-30T22:45:21.812Z,18.31
2022-08-30T22:47:48.924Z,18.00
2022-08-30T22:50:16.199Z,17.67
2022-08-30T22:52:59.486Z,17.56
2022-08-30T22:55:28.666Z,17.60
2022-08-30T22:58:03.770Z,17.82
2022-08-30T23:00:31.901Z,17.85
2022-08-30T23:03:08.097Z,17.94
2022-08-30T23:05:36.806Z,17.95
2022-08-30T23:08:05.658Z,18.01
2022-08-30T23:10:33.446Z,18.07
2022-08-30T23:13:16.004Z,18.12
2022-08-30T23:15:46.106Z,18.08
2022-08-30T23:18:15.308Z,18.16
2022-08-30T23:20:43.499Z,18.17
2022-08-30T23:23:11.863Z,18.23
2022-08-30T23:25:58.262Z,18.35
2022-08-30T23:28:46.105Z,18.31
2022-08-30T23:31:37.019Z,18.33
2022-08-30T23:34:49.316Z,18.28
2022-08-30T23:37:34.874Z,18.21
2022-08-30T23:40:21.528Z,18.17
2022-08-30T23:43:08.871Z,18.13
2022-08-30T23:45:55.684Z,18.07
2022-08-30T23:48:41.192Z,18.09
2022-08-30T23:51:39.167Z,18.09
2022-08-30T23:54:31.889Z,18.10
2022-08-30T23:57:40.126Z,18.10
